createdAt,value
2022-08-01T00:02:26.154Z,22.30
2022-08-01T00:05:29.513Z,22.30
2022-08-01T00:08:33.008Z,22.30
2022-08-01T00:11:37.671Z,22.30
2022-08-01T00:14:40.810Z,22.30
2022-08-01T00:17:45.023Z,22.30
2022-08-01T00:20:48.483Z,22.20
2022-08-01T00:23:51.635Z,22.20
2022-08-01T00:26:56.187Z,22.10
2022-08-01T00:30:11.559Z,22.10
2022-08-01T00:33:17.401Z,22.10
2022-08-01T00:36:20.542Z,22.00
2022-08-01T00:39:23.685Z,22.00
2022-08-01T00:42:28.232Z,22.00
2022-08-01T00:45:31.522Z,21.90
2022-08-01T00:48:34.650Z,21.90
2022-08-01T00:51:37.803Z,21.90
2022-08-01T00:54:42.094Z,21.80
2022-08-01T00:58:02.622Z,21.70
2022-08-01T01:01:08.823Z,21.70
2022-08-01T01:04:11.974Z,21.60
2022-08-01T01:07:20.605Z,21.50
2022-08-01T01:10:27.924Z,21.40
2022-08-01T01:13:50.322Z,21.30
2022-08-01T01:16:55.901Z,21.30
2022-08-01T01:20:01.732Z,21.30
2022-08-01T01:23:16.814Z,21.30
2022-08-01T01:26:30.795Z,21.30
2022-08-01T01:29:58.807Z,21.20
2022-08-01T01:33:08.017Z,21.20
2022-08-01T01:36:14.674Z,21.20
2022-08-01T01:39:19.049Z,21.20
2022-08-01T01:42:24.583Z,21.20
2022-08-01T01:45:30.514Z,21.10
2022-08-01T01:48:35.854Z,21.00
2022-08-01T01:51:40.570Z,21.10
2022-08-01T01:54:49.176Z,21.10
2022-08-01T01:57:54.252Z,21.10
2022-08-01T02:01:02.861Z,21.10
2022-08-01T02:04:07.931Z,21.10
2022-08-01T02:07:12.265Z,21.10
2022-08-01T02:10:17.820Z,21.10
2022-08-01T02:13:23.022Z,21.00
2022-08-01T02:16:31.320Z,21.10
2022-08-01T02:19:38.586Z,21.10
2022-08-01T02:22:44.800Z,21.00
2022-08-01T02:26:09.514Z,21.00
2022-08-01T02:29:19.097Z,21.00
2022-08-01T02:32:38.554Z,20.90
2022-08-01T02:36:32.032Z,20.90
2022-08-01T02:39:11.373Z,20.90
2022-08-01T02:42:16.538Z,21.00
2022-08-01T02:45:20.992Z,21.00
2022-08-01T02:48:28.570Z,20.90
2022-08-01T02:51:33.223Z,20.90
2022-08-01T02:54:37.767Z,21.00
2022-08-01T02:57:52.049Z,21.00
2022-08-01T03:00:56.386Z,21.00
2022-08-01T03:04:01.733Z,21.00
2022-08-01T03:07:07.155Z,21.00
2022-08-01T03:10:11.928Z,21.00
2022-08-01T03:13:16.630Z,21.00
2022-08-01T03:16:20.737Z,21.00
2022-08-01T03:19:28.552Z,21.00
2022-08-01T03:22:32.436Z,20.90
2022-08-01T03:25:38.629Z,20.90
2022-08-01T03:28:43.743Z,20.80
2022-08-01T03:31:48.401Z,20.70
2022-08-01T03:34:53.308Z,20.60
2022-08-01T03:38:15.783Z,20.60
2022-08-01T03:41:23.303Z,20.50
2022-08-01T03:44:30.440Z,20.50
2022-08-01T03:47:43.624Z,20.50
2022-08-01T03:50:52.813Z,20.50
2022-08-01T03:53:57.475Z,20.50
2022-08-01T03:57:01.971Z,20.40
2022-08-01T04:00:09.728Z,20.40
2022-08-01T04:03:14.304Z,20.40
2022-08-01T04:06:18.979Z,20.40
2022-08-01T04:09:22.840Z,20.40
2022-08-01T04:12:26.154Z,20.50
2022-08-01T04:15:29.416Z,20.50
2022-08-01T04:18:33.149Z,20.50
2022-08-01T04:21:38.679Z,20.60
2022-08-01T04:24:43.326Z,20.50
2022-08-01T04:27:51.224Z,20.60
2022-08-01T04:31:01.823Z,20.60
2022-08-01T04:34:07.819Z,20.60
2022-08-01T04:37:14.147Z,20.60
2022-08-01T04:40:18.209Z,20.60
2022-08-01T04:43:21.666Z,20.60
2022-08-01T04:46:25.257Z,20.70
2022-08-01T04:49:28.782Z,20.80
2022-08-01T04:52:37.055Z,20.90
2022-08-01T04:55:40.150Z,21.00
2022-08-01T04:58:43.488Z,21.10
2022-08-01T05:01:51.235Z,21.10
2022-08-01T05:04:56.034Z,21.20
2022-08-01T05:08:01.286Z,21.20
2022-08-01T05:11:04.474Z,21.20
2022-08-01T05:14:08.140Z,21.20
2022-08-01T05:17:12.229Z,21.30
2022-08-01T05:20:15.422Z,21.60
2022-08-01T05:23:42.634Z,21.90
2022-08-01T05:26:43.376Z,22.30
2022-08-01T05:29:47.579Z,22.80
2022-08-01T05:32:50.692Z,23.00
2022-08-01T05:35:53.822Z,23.20
2022-08-01T05:38:58.445Z,23.10
2022-08-01T05:42:01.573Z,23.00
2022-08-01T05:45:05.295Z,22.90
2022-08-01T05:48:08.579Z,22.80
2022-08-01T05:51:11.675Z,22.70
2022-08-01T05:54:16.168Z,22.50
2022-08-01T05:57:19.260Z,22.40
2022-08-01T06:00:22.503Z,22.20
2022-08-01T06:03:26.131Z,22.10
2022-08-01T06:06:29.246Z,22.00
2022-08-01T06:09:33.759Z,21.90
2022-08-01T06:12:37.594Z,21.90
2022-08-01T06:15:40.935Z,21.90
2022-08-01T06:18:44.219Z,21.90
2022-08-01T06:21:47.366Z,22.00
2022-08-01T06:24:51.850Z,22.10
2022-08-01T06:27:55.052Z,22.10
2022-08-01T06:30:59.606Z,22.20
2022-08-01T06:34:02.734Z,22.30
2022-08-01T06:37:06.929Z,22.50
2022-08-01T06:40:17.175Z,22.60
2022-08-01T06:43:20.840Z,22.70
2022-08-01T06:46:23.948Z,22.70
2022-08-01T06:49:33.648Z,22.60
2022-08-01T06:52:37.064Z,22.40
2022-08-01T06:55:41.599Z,22.30
2022-08-01T06:58:44.781Z,22.30
2022-08-01T07:01:47.920Z,22.40
2022-08-01T07:04:51.056Z,22.40
2022-08-01T07:07:54.324Z,22.40
2022-08-01T07:11:00.622Z,22.50
2022-08-01T07:14:04.249Z,22.60
2022-08-01T07:17:07.409Z,22.80
2022-08-01T07:20:14.014Z,22.90
2022-08-01T07:23:21.870Z,23.00
2022-08-01T07:26:27.746Z,23.20
2022-08-01T07:29:30.915Z,23.30
2022-08-01T07:32:35.876Z,23.40
2022-08-01T07:35:39.291Z,23.60
2022-08-01T07:38:42.451Z,23.90
2022-08-01T07:42:06.828Z,24.40
2022-08-01T07:45:11.804Z,27.30
2022-08-01T07:48:14.936Z,31.30
2022-08-01T07:51:18.048Z,34.20
2022-08-01T07:54:21.163Z,36.30
2022-08-01T07:57:38.765Z,37.70
2022-08-01T08:00:41.943Z,37.10
2022-08-01T08:03:45.020Z,36.10
2022-08-01T08:06:48.679Z,35.70
2022-08-01T08:09:51.824Z,34.70
2022-08-01T08:12:56.341Z,33.50
2022-08-01T08:16:00.763Z,32.30
2022-08-01T08:19:03.899Z,31.10
2022-08-01T08:22:08.265Z,30.30
2022-08-01T08:25:12.631Z,29.80
2022-08-01T08:28:17.134Z,29.30
2022-08-01T08:31:25.285Z,29.10
2022-08-01T08:34:43.879Z,28.70
2022-08-01T08:37:47.531Z,28.50
2022-08-01T08:40:52.561Z,28.40
2022-08-01T08:43:58.524Z,28.10
2022-08-01T08:47:06.216Z,28.20
2022-08-01T08:50:12.636Z,28.60
2022-08-01T08:53:19.074Z,29.10
2022-08-01T08:56:23.320Z,30.30
2022-08-01T08:59:29.489Z,31.40
2022-08-01T09:02:32.724Z,31.90
2022-08-01T09:05:38.658Z,32.20
2022-08-01T09:08:43.065Z,32.50
2022-08-01T09:11:57.079Z,32.80
2022-08-01T09:15:10.914Z,32.80
2022-08-01T09:18:31.729Z,32.90
2022-08-01T09:21:34.866Z,33.10
2022-08-01T09:24:38.168Z,33.10
2022-08-01T09:27:44.260Z,32.80
2022-08-01T09:30:50.934Z,32.80
2022-08-01T09:33:56.909Z,33.10
2022-08-01T09:37:03.438Z,33.40
2022-08-01T09:40:07.844Z,33.30
2022-08-01T09:43:15.086Z,33.10
2022-08-01T09:46:20.616Z,33.00
2022-08-01T09:49:49.627Z,32.90
2022-08-01T09:52:57.167Z,32.80
2022-08-01T09:56:11.935Z,32.70
2022-08-01T09:59:16.846Z,32.50
2022-08-01T10:02:32.433Z,32.50
2022-08-01T10:05:37.852Z,32.50
2022-08-01T10:08:48.818Z,32.50
2022-08-01T10:11:53.296Z,32.40
2022-08-01T10:15:00.644Z,32.40
2022-08-01T10:18:21.437Z,32.50
2022-08-01T10:21:56.555Z,32.50
2022-08-01T10:24:56.935Z,32.40
2022-08-01T10:28:03.609Z,32.30
2022-08-01T10:31:12.688Z,31.90
2022-08-01T10:34:20.851Z,31.80
2022-08-01T10:37:27.252Z,31.70
2022-08-01T10:40:31.437Z,31.70
2022-08-01T10:43:35.368Z,31.70
2022-08-01T10:46:41.155Z,31.60
2022-08-01T10:49:57.906Z,31.50
2022-08-01T10:53:16.059Z,31.80
2022-08-01T10:56:41.828Z,32.00
2022-08-01T11:00:01.214Z,32.20
2022-08-01T11:03:05.800Z,32.50
2022-08-01T11:06:19.213Z,32.60
2022-08-01T11:09:37.472Z,32.60
2022-08-01T11:12:43.897Z,32.60
2022-08-01T11:15:49.924Z,32.70
2022-08-01T11:18:53.992Z,32.70
2022-08-01T11:22:04.969Z,32.60
2022-08-01T11:25:08.360Z,32.50
2022-08-01T11:28:30.037Z,32.30
2022-08-01T11:31:38.444Z,32.20
2022-08-01T11:34:55.804Z,32.10
2022-08-01T11:38:29.002Z,32.20
2022-08-01T11:41:38.101Z,32.30
2022-08-01T11:44:51.972Z,32.50
2022-08-01T11:47:55.305Z,32.30
2022-08-01T11:51:02.044Z,32.30
2022-08-01T11:54:07.185Z,32.40
2022-08-01T11:57:11.742Z,32.70
2022-08-01T12:00:17.859Z,33.00
2022-08-01T12:03:33.270Z,33.10
2022-08-01T12:06:37.218Z,33.20
2022-08-01T12:09:41.720Z,33.30
2022-08-01T12:12:46.522Z,33.40
2022-08-01T12:15:56.181Z,33.40
2022-08-01T12:18:59.931Z,33.40
2022-08-01T12:22:11.237Z,33.40
2022-08-01T12:25:17.116Z,33.20
2022-08-01T12:28:20.243Z,33.00
2022-08-01T12:31:33.744Z,32.90
2022-08-01T12:34:36.865Z,32.90
2022-08-01T12:37:41.139Z,32.80
2022-08-01T12:40:47.585Z,32.60
2022-08-01T12:43:54.887Z,32.60
2022-08-01T12:46:58.752Z,32.70
2022-08-01T12:50:01.958Z,32.70
2022-08-01T12:53:05.192Z,32.90
2022-08-01T12:56:12.615Z,33.10
2022-08-01T12:59:23.423Z,33.20
2022-08-01T13:02:34.984Z,33.10
2022-08-01T13:05:47.082Z,33.10
2022-08-01T13:08:50.198Z,33.20
2022-08-01T13:12:04.181Z,33.30
2022-08-01T13:15:19.902Z,33.30
2022-08-01T13:18:28.256Z,33.40
2022-08-01T13:21:52.793Z,33.50
2022-08-01T13:25:11.996Z,33.30
2022-08-01T13:28:21.449Z,33.20
2022-08-01T13:31:34.884Z,33.00
2022-08-01T13:34:38.357Z,32.90
2022-08-01T13:37:43.044Z,32.90
2022-08-01T13:40:46.300Z,32.90
2022-08-01T13:43:59.022Z,33.00
2022-08-01T13:47:15.428Z,33.10
2022-08-01T13:50:19.143Z,33.10
2022-08-01T13:53:22.258Z,33.00
2022-08-01T13:56:26.060Z,33.00
2022-08-01T13:59:30.645Z,33.10
2022-08-01T14:02:33.797Z,32.90
2022-08-01T14:05:37.121Z,32.90
2022-08-01T14:08:40.390Z,33.10
2022-08-01T14:11:49.312Z,33.00
2022-08-01T14:14:53.780Z,33.00
2022-08-01T14:17:56.918Z,33.10
2022-08-01T14:21:05.275Z,33.20
2022-08-01T14:24:10.666Z,33.10
2022-08-01T14:27:13.798Z,33.10
2022-08-01T14:30:18.271Z,33.20
2022-08-01T14:33:21.388Z,33.10
2022-08-01T14:36:29.636Z,33.10
2022-08-01T14:39:34.547Z,33.10
2022-08-01T14:42:38.375Z,33.00
2022-08-01T14:45:43.126Z,32.70
2022-08-01T14:48:46.277Z,32.70
2022-08-01T14:51:49.677Z,32.70
2022-08-01T14:54:52.798Z,32.60
2022-08-01T14:57:56.269Z,32.50
2022-08-01T15:01:01.661Z,32.40
2022-08-01T15:04:04.982Z,32.40
2022-08-01T15:07:13.371Z,32.30
2022-08-01T15:10:17.200Z,32.10
2022-08-01T15:13:20.382Z,32.00
2022-08-01T15:16:25.460Z,32.00
2022-08-01T15:19:28.946Z,31.90
2022-08-01T15:22:32.266Z,31.70
2022-08-01T15:25:41.223Z,31.60
2022-08-01T15:28:45.499Z,31.20
2022-08-01T15:31:50.482Z,30.80
2022-08-01T15:34:53.925Z,30.40
2022-08-01T15:37:58.279Z,29.90
2022-08-01T15:41:01.423Z,29.90
2022-08-01T15:44:05.061Z,30.00
2022-08-01T15:47:10.830Z,29.70
2022-08-01T15:50:13.978Z,29.80
2022-08-01T15:53:17.054Z,29.80
2022-08-01T15:56:20.301Z,29.50
2022-08-01T15:59:23.711Z,29.30
2022-08-01T16:02:28.337Z,29.40
2022-08-01T16:05:31.524Z,29.50
2022-08-01T16:08:34.763Z,29.60
2022-08-01T16:11:42.934Z,29.70
2022-08-01T16:14:54.287Z,29.80
2022-08-01T16:18:02.229Z,29.80
2022-08-01T16:21:07.847Z,29.90
2022-08-01T16:24:11.180Z,29.80
2022-08-01T16:27:15.218Z,29.80
2022-08-01T16:30:18.343Z,29.70
2022-08-01T16:33:45.743Z,29.70
2022-08-01T16:36:46.409Z,29.60
2022-08-01T16:39:49.551Z,29.30
2022-08-01T16:42:52.682Z,29.20
2022-08-01T16:45:56.036Z,29.20
2022-08-01T16:49:00.632Z,29.20
2022-08-01T16:52:03.930Z,29.10
2022-08-01T16:55:08.122Z,29.00
2022-08-01T16:58:12.072Z,28.90
2022-08-01T17:02:00.298Z,28.80
2022-08-01T17:04:39.814Z,28.70
2022-08-01T17:07:42.957Z,28.50
2022-08-01T17:10:46.261Z,28.40
2022-08-01T17:13:49.418Z,28.30
2022-08-01T17:16:52.537Z,28.10
2022-08-01T17:19:57.131Z,27.90
2022-08-01T17:23:00.223Z,27.80
2022-08-01T17:26:03.732Z,27.70
2022-08-01T17:29:06.819Z,27.70
2022-08-01T17:32:10.918Z,27.60
2022-08-01T17:35:15.616Z,27.60
2022-08-01T17:38:19.610Z,27.60
2022-08-01T17:41:22.885Z,27.70
2022-08-01T17:44:27.481Z,27.70
2022-08-01T17:47:49.790Z,27.70
2022-08-01T17:50:55.575Z,27.70
2022-08-01T17:53:59.040Z,27.70
2022-08-01T17:57:02.641Z,27.70
2022-08-01T18:00:12.790Z,27.70
2022-08-01T18:03:22.815Z,27.70
2022-08-01T18:06:35.993Z,27.60
2022-08-01T18:09:43.999Z,27.50
2022-08-01T18:12:49.020Z,27.50
2022-08-01T18:15:52.236Z,27.50
2022-08-01T18:18:56.294Z,27.50
2022-08-01T18:22:00.818Z,27.40
2022-08-01T18:25:08.868Z,27.30
2022-08-01T18:28:22.506Z,27.30
2022-08-01T18:31:35.824Z,27.20
2022-08-01T18:34:39.026Z,27.20
2022-08-01T18:37:54.442Z,27.10
2022-08-01T18:40:58.531Z,27.10
2022-08-01T18:44:05.538Z,27.00
2022-08-01T18:47:11.830Z,26.90
2022-08-01T18:50:15.005Z,26.90
2022-08-01T18:53:20.863Z,26.80
2022-08-01T18:56:24.000Z,26.80
2022-08-01T18:59:27.294Z,26.60
2022-08-01T19:02:30.414Z,26.60
2022-08-01T19:05:34.985Z,26.50
2022-08-01T19:08:40.555Z,26.50
2022-08-01T19:11:43.639Z,26.50
2022-08-01T19:14:46.823Z,26.40
2022-08-01T19:17:50.010Z,26.40
2022-08-01T19:20:53.403Z,26.40
2022-08-01T19:24:15.245Z,26.40
2022-08-01T19:27:18.408Z,26.20
2022-08-01T19:30:21.542Z,26.10
2022-08-01T19:33:24.653Z,26.00
2022-08-01T19:36:28.532Z,26.00
2022-08-01T19:39:33.038Z,26.00
2022-08-01T19:42:40.972Z,26.00
2022-08-01T19:45:46.092Z,26.00
2022-08-01T19:48:54.029Z,25.90
2022-08-01T19:52:02.406Z,25.90
2022-08-01T19:55:09.030Z,25.80
2022-08-01T19:58:29.081Z,25.70
2022-08-01T20:01:32.384Z,25.70
2022-08-01T20:04:37.335Z,25.60
2022-08-01T20:07:41.219Z,25.60
2022-08-01T20:10:48.049Z,25.50
2022-08-01T20:13:52.450Z,25.50
2022-08-01T20:16:57.452Z,25.40
2022-08-01T20:20:00.880Z,25.40
2022-08-01T20:23:05.697Z,25.20
2022-08-01T20:26:11.131Z,25.20
2022-08-01T20:29:15.715Z,25.10
2022-08-01T20:32:21.061Z,25.10
2022-08-01T20:35:51.866Z,25.10
2022-08-01T20:38:49.304Z,25.00
2022-08-01T20:41:59.586Z,24.90
2022-08-01T20:45:05.113Z,24.90
2022-08-01T20:48:12.280Z,24.80
2022-08-01T20:51:16.395Z,24.80
2022-08-01T20:54:19.777Z,24.70
2022-08-01T20:57:28.634Z,24.70
2022-08-01T21:00:32.588Z,24.60
2022-08-01T21:03:42.350Z,24.50
2022-08-01T21:06:55.893Z,24.40
2022-08-01T21:10:06.265Z,24.40
2022-08-01T21:13:20.523Z,24.40
2022-08-01T21:16:30.116Z,24.20
2022-08-01T21:19:35.553Z,24.20
2022-08-01T21:22:42.946Z,24.10
2022-08-01T21:25:47.688Z,24.00
2022-08-01T21:28:54.559Z,24.00
2022-08-01T21:32:12.539Z,24.00
2022-08-01T21:35:18.611Z,23.90
2022-08-01T21:38:22.512Z,23.90
2022-08-01T21:41:56.179Z,23.90
2022-08-01T21:44:51.431Z,23.80
2022-08-01T21:47:55.504Z,23.80
2022-08-01T21:50:59.976Z,23.70
2022-08-01T21:54:10.444Z,23.70
2022-08-01T21:57:23.655Z,23.60
2022-08-01T22:00:28.802Z,23.60
2022-08-01T22:03:37.475Z,23.40
2022-08-01T22:06:45.644Z,23.40
2022-08-01T22:09:51.941Z,23.30
2022-08-01T22:12:57.178Z,23.30
2022-08-01T22:16:07.523Z,23.20
2022-08-01T22:19:32.560Z,23.30
2022-08-01T22:22:50.831Z,23.20
2022-08-01T22:26:04.076Z,23.20
2022-08-01T22:29:12.777Z,23.20
2022-08-01T22:32:19.912Z,23.20
2022-08-01T22:35:25.770Z,23.10
2022-08-01T22:38:33.100Z,23.10
2022-08-01T22:42:01.681Z,23.10
2022-08-01T22:45:10.026Z,23.10
2022-08-01T22:48:26.238Z,23.10
2022-08-01T22:51:43.676Z,23.00
2022-08-01T22:55:23.256Z,23.00
2022-08-01T22:59:00.342Z,23.00
2022-08-01T23:02:06.436Z,22.90
2022-08-01T23:05:29.466Z,22.90
2022-08-01T23:08:34.956Z,22.80
2022-08-01T23:11:41.516Z,22.80
2022-08-01T23:14:47.775Z,22.80
2022-08-01T23:17:53.728Z,22.80
2022-08-01T23:21:01.314Z,22.70
2022-08-01T23:24:08.936Z,22.70
2022-08-01T23:27:51.884Z,22.70
2022-08-01T23:30:52.555Z,22.70
2022-08-01T23:33:57.977Z,22.70
2022-08-01T23:37:07.038Z,22.70
2022-08-01T23:40:13.089Z,22.70
2022-08-01T23:43:17.494Z,22.70
2022-08-01T23:46:20.997Z,22.70
2022-08-01T23:49:24.187Z,22.70
2022-08-01T23:52:32.244Z,22.70
2022-08-01T23:55:37.763Z,22.70
2022-08-01T23:58:41.342Z,22.60
